sensor_id;sensor_type;location;lat;lon;timestamp;pressure;altitude;pressure_sealevel;temperature;humidity
36932;BME280;22847;42.654;23.370;2024-03-29T00:01:35;94401.84;;;14.89;45.74
36932;BME280;22847;42.654;23.370;2024-03-29T00:04:00;94430.03;;;14.95;45.54
36932;BME280;22847;42.654;23.370;2024-03-29T00:06:26;94405.00;;;14.84;45.45
36932;BME280;22847;42.654;23.370;2024-03-29T00:08:51;94430.03;;;14.95;45.70
36932;BME280;22847;42.654;23.370;2024-03-29T00:11:17;94309.06;;;13.99;46.60
36932;BME280;22847;42.654;23.370;2024-03-29T00:13:42;94324.88;;;14.05;46.73
36932;BME280;22847;42.654;23.370;2024-03-29T00:16:08;94399.13;;;14.59;46.34
36932;BME280;22847;42.654;23.370;2024-03-29T00:18:33;94293.38;;;13.91;46.13
36932;BME280;22847;42.654;23.370;2024-03-29T00:20:59;94437.50;;;14.83;46.70
36932;BME280;22847;42.654;23.370;2024-03-29T00:23:24;94435.41;;;14.79;46.16
36932;BME280;22847;42.654;23.370;2024-03-29T00:25:49;94404.28;;;14.53;46.23
36932;BME280;22847;42.654;23.370;2024-03-29T00:28:15;94433.00;;;14.46;46.22
36932;BME280;22847;42.654;23.370;2024-03-29T00:30:40;94446.09;;;14.54;46.13
36932;BME280;22847;42.654;23.370;2024-03-29T00:33:06;94466.19;;;14.62;46.21
36932;BME280;22847;42.654;23.370;2024-03-29T00:35:31;94435.91;;;14.51;46.02
36932;BME280;22847;42.654;23.370;2024-03-29T00:37:57;94438.84;;;14.56;45.92
36932;BME280;22847;42.654;23.370;2024-03-29T00:40:41;94465.25;;;14.78;45.97
36932;BME280;22847;42.654;23.370;2024-03-29T00:43:07;94425.09;;;14.54;45.70
36932;BME280;22847;42.654;23.370;2024-03-29T00:45:32;94321.41;;;13.90;46.02
36932;BME280;22847;42.654;23.370;2024-03-29T00:47:58;94442.44;;;14.55;46.26
36932;BME280;22847;42.654;23.370;2024-03-29T00:50:23;94452.72;;;14.65;46.19
36932;BME280;22847;42.654;23.370;2024-03-29T00:52:49;94226.19;;;13.13;46.81
36932;BME280;22847;42.654;23.370;2024-03-29T00:55:15;94312.84;;;13.65;46.38
36932;BME280;22847;42.654;23.370;2024-03-29T00:57:40;94380.44;;;14.09;46.61
36932;BME280;22847;42.654;23.370;2024-03-29T01:00:06;94355.63;;;13.89;46.48
36932;BME280;22847;42.654;23.370;2024-03-29T01:02:32;94465.19;;;14.40;46.37
36932;BME280;22847;42.654;23.370;2024-03-29T01:04:57;94476.59;;;14.47;46.72
36932;BME280;22847;42.654;23.370;2024-03-29T01:07:23;94472.53;;;14.45;46.66
36932;BME280;22847;42.654;23.370;2024-03-29T01:09:48;94481.91;;;14.39;46.89
36932;BME280;22847;42.654;23.370;2024-03-29T01:12:14;94481.56;;;14.42;46.88
36932;BME280;22847;42.654;23.370;2024-03-29T01:14:39;94467.28;;;14.45;46.85
36932;BME280;22847;42.654;23.370;2024-03-29T01:17:05;94481.22;;;14.45;46.67
36932;BME280;22847;42.654;23.370;2024-03-29T01:19:32;94456.41;;;14.17;46.88
36932;BME280;22847;42.654;23.370;2024-03-29T01:21:57;94352.84;;;13.51;46.82
36932;BME280;22847;42.654;23.370;2024-03-29T01:24:23;94500.28;;;14.39;46.85
36932;BME280;22847;42.654;23.370;2024-03-29T01:26:49;94482.25;;;14.36;46.77
36932;BME280;22847;42.654;23.370;2024-03-29T01:29:15;94414.94;;;13.90;46.78
36932;BME280;22847;42.654;23.370;2024-03-29T01:31:40;94491.88;;;14.44;46.79
36932;BME280;22847;42.654;23.370;2024-03-29T01:34:06;94324.38;;;13.48;46.47
36932;BME280;22847;42.654;23.370;2024-03-29T01:36:31;94490.38;;;14.49;46.39
36932;BME280;22847;42.654;23.370;2024-03-29T01:38:56;94369.19;;;13.61;46.79
36932;BME280;22847;42.654;23.370;2024-03-29T01:41:24;94503.06;;;14.29;46.58
36932;BME280;22847;42.654;23.370;2024-03-29T01:43:51;94396.69;;;13.65;46.93
36932;BME280;22847;42.654;23.370;2024-03-29T01:46:19;94497.09;;;14.13;47.35
36932;BME280;22847;42.654;23.370;2024-03-29T01:48:45;94476.47;;;14.02;47.25
36932;BME280;22847;42.654;23.370;2024-03-29T01:51:13;94507.81;;;14.34;46.85
36932;BME280;22847;42.654;23.370;2024-03-29T01:53:39;94482.66;;;14.17;46.64
36932;BME280;22847;42.654;23.370;2024-03-29T01:56:06;94523.22;;;14.37;46.47
36932;BME280;22847;42.654;23.370;2024-03-29T01:58:32;94539.56;;;14.47;46.37
36932;BME280;22847;42.654;23.370;2024-03-29T02:00:58;94516.38;;;14.36;46.57
36932;BME280;22847;42.654;23.370;2024-03-29T02:03:25;94534.69;;;14.44;46.70
36932;BME280;22847;42.654;23.370;2024-03-29T02:06:00;94544.81;;;14.47;46.90
36932;BME280;22847;42.654;23.370;2024-03-29T02:08:28;94545.53;;;14.25;47.06
36932;BME280;22847;42.654;23.370;2024-03-29T02:10:53;94419.69;;;13.39;47.32
36932;BME280;22847;42.654;23.370;2024-03-29T02:13:20;94520.72;;;13.97;47.50
36932;BME280;22847;42.654;23.370;2024-03-29T02:15:45;94523.03;;;14.00;47.30
36932;BME280;22847;42.654;23.370;2024-03-29T02:18:11;94506.25;;;13.62;47.56
36932;BME280;22847;42.654;23.370;2024-03-29T02:20:36;94599.63;;;14.26;47.73
36932;BME280;22847;42.654;23.370;2024-03-29T02:23:10;94606.19;;;14.30;47.72
36932;BME280;22847;42.654;23.370;2024-03-29T02:25:36;94607.53;;;14.10;48.43
36932;BME280;22847;42.654;23.370;2024-03-29T02:28:03;94594.75;;;14.15;48.50
36932;BME280;22847;42.654;23.370;2024-03-29T02:30:29;94600.47;;;14.10;48.17
36932;BME280;22847;42.654;23.370;2024-03-29T02:33:01;94590.03;;;13.94;48.35
36932;BME280;22847;42.654;23.370;2024-03-29T02:35:27;94373.16;;;12.53;48.26
36932;BME280;22847;42.654;23.370;2024-03-29T02:37:53;94529.53;;;13.40;48.54
36932;BME280;22847;42.654;23.370;2024-03-29T02:40:20;94474.84;;;12.97;48.63
36932;BME280;22847;42.654;23.370;2024-03-29T02:42:49;94605.28;;;13.74;48.47
36932;BME280;22847;42.654;23.370;2024-03-29T02:45:15;94510.56;;;13.14;48.67
36932;BME280;22847;42.654;23.370;2024-03-29T02:47:40;94626.91;;;13.84;49.02
36932;BME280;22847;42.654;23.370;2024-03-29T02:50:08;94614.63;;;13.61;49.50
36932;BME280;22847;42.654;23.370;2024-03-29T02:52:34;94622.00;;;13.57;50.07
36932;BME280;22847;42.654;23.370;2024-03-29T02:55:00;94605.28;;;13.42;50.29
36932;BME280;22847;42.654;23.370;2024-03-29T02:57:25;94480.38;;;12.62;50.14
36932;BME280;22847;42.654;23.370;2024-03-29T02:59:51;94338.44;;;11.37;50.35
36932;BME280;22847;42.654;23.370;2024-03-29T03:02:16;94614.78;;;13.27;50.26
36932;BME280;22847;42.654;23.370;2024-03-29T03:04:42;94657.22;;;13.55;49.95
36932;BME280;22847;42.654;23.370;2024-03-29T03:07:07;94634.63;;;13.54;49.76
36932;BME280;22847;42.654;23.370;2024-03-29T03:09:51;94520.28;;;12.80;50.06
36932;BME280;22847;42.654;23.370;2024-03-29T03:12:35;94644.75;;;13.40;50.22
36932;BME280;22847;42.654;23.370;2024-03-29T03:15:01;94626.06;;;13.19;50.23
36932;BME280;22847;42.654;23.370;2024-03-29T03:17:28;94614.78;;;13.19;50.12
36932;BME280;22847;42.654;23.370;2024-03-29T03:19:54;94503.09;;;12.53;50.14
36932;BME280;22847;42.654;23.370;2024-03-29T03:22:19;94620.66;;;13.21;50.22
36932;BME280;22847;42.654;23.370;2024-03-29T03:24:45;94653.41;;;13.33;50.17
36932;BME280;22847;42.654;23.370;2024-03-29T03:27:10;94642.28;;;13.23;50.40
36932;BME280;22847;42.654;23.370;2024-03-29T03:29:36;94643.22;;;13.06;50.86
36932;BME280;22847;42.654;23.370;2024-03-29T03:32:01;94693.16;;;13.28;50.46
36932;BME280;22847;42.654;23.370;2024-03-29T03:34:27;94674.53;;;13.31;50.35
36932;BME280;22847;42.654;23.370;2024-03-29T03:36:53;94546.19;;;12.33;50.97
36932;BME280;22847;42.654;23.370;2024-03-29T03:39:18;94525.38;;;12.15;51.05
36932;BME280;22847;42.654;23.370;2024-03-29T03:41:44;94518.94;;;12.01;51.20
36932;BME280;22847;42.654;23.370;2024-03-29T03:44:09;94679.63;;;12.91;51.28
36932;BME280;22847;42.654;23.370;2024-03-29T03:46:35;94674.66;;;12.72;52.02
36932;BME280;22847;42.654;23.370;2024-03-29T03:49:00;94677.25;;;12.72;52.24
36932;BME280;22847;42.654;23.370;2024-03-29T03:51:26;94699.47;;;12.68;52.25
36932;BME280;22847;42.654;23.370;2024-03-29T03:53:51;94561.84;;;11.91;52.12
36932;BME280;22847;42.654;23.370;2024-03-29T03:56:17;94704.09;;;12.74;52.19
36932;BME280;22847;42.654;23.370;2024-03-29T03:58:44;94671.97;;;12.56;52.17
36932;BME280;22847;42.654;23.370;2024-03-29T04:01:10;94705.94;;;12.89;51.85
36932;BME280;22847;42.654;23.370;2024-03-29T04:03:35;94568.50;;;12.11;51.55
36932;BME280;22847;42.654;23.370;2024-03-29T04:06:04;94700.13;;;13.04;51.25
36932;BME280;22847;42.654;23.370;2024-03-29T04:08:29;94682.06;;;12.92;50.99
36932;BME280;22847;42.654;23.370;2024-03-29T04:10:55;94564.78;;;12.30;50.76
36932;BME280;22847;42.654;23.370;2024-03-29T04:13:21;94752.75;;;13.26;50.78
36932;BME280;22847;42.654;23.370;2024-03-29T04:15:47;94731.81;;;13.34;50.40
36932;BME280;22847;42.654;23.370;2024-03-29T04:18:13;94712.97;;;13.15;50.45
36932;BME280;22847;42.654;23.370;2024-03-29T04:20:38;94748.22;;;13.45;50.38
36932;BME280;22847;42.654;23.370;2024-03-29T04:23:05;94682.47;;;13.06;50.23
36932;BME280;22847;42.654;23.370;2024-03-29T04:25:30;94757.75;;;13.54;49.92
36932;BME280;22847;42.654;23.370;2024-03-29T04:27:56;94781.50;;;13.60;49.76
36932;BME280;22847;42.654;23.370;2024-03-29T04:30:21;94644.31;;;12.95;49.62
36932;BME280;22847;42.654;23.370;2024-03-29T04:32:47;94689.41;;;13.23;49.63
36932;BME280;22847;42.654;23.370;2024-03-29T04:35:12;94759.06;;;13.66;49.75
36932;BME280;22847;42.654;23.370;2024-03-29T04:37:38;94768.44;;;13.76;49.44
36932;BME280;22847;42.654;23.370;2024-03-29T04:40:04;94686.31;;;13.27;49.20
36932;BME280;22847;42.654;23.370;2024-03-29T04:42:29;94760.72;;;13.75;48.98
36932;BME280;22847;42.654;23.370;2024-03-29T04:44:55;94776.97;;;13.87;49.38
36932;BME280;22847;42.654;23.370;2024-03-29T04:47:20;94793.69;;;13.94;49.50
36932;BME280;22847;42.654;23.370;2024-03-29T04:49:46;94664.84;;;13.16;49.22
36932;BME280;22847;42.654;23.370;2024-03-29T04:52:11;94757.28;;;13.74;49.44
36932;BME280;22847;42.654;23.370;2024-03-29T04:54:38;94800.09;;;13.99;49.57
36932;BME280;22847;42.654;23.370;2024-03-29T04:57:03;94716.16;;;13.51;49.21
36932;BME280;22847;42.654;23.370;2024-03-29T04:59:32;94807.75;;;15.06;47.82
36932;BME280;22847;42.654;23.370;2024-03-29T05:02:01;94805.94;;;18.28;40.53
36932;BME280;22847;42.654;23.370;2024-03-29T05:04:27;94708.28;;;20.66;38.23
36932;BME280;22847;42.654;23.370;2024-03-29T05:06:53;94808.81;;;24.32;30.04
36932;BME280;22847;42.654;23.370;2024-03-29T05:09:19;94761.00;;;26.12;26.82
36932;BME280;22847;42.654;23.370;2024-03-29T05:11:45;94786.84;;;27.80;24.38
36932;BME280;22847;42.654;23.370;2024-03-29T05:14:13;94693.94;;;28.66;23.12
36932;BME280;22847;42.654;23.370;2024-03-29T05:16:40;94777.66;;;30.10;21.62
36932;BME280;22847;42.654;23.370;2024-03-29T05:19:06;94795.13;;;30.90;20.64
36932;BME280;22847;42.654;23.370;2024-03-29T05:21:31;94794.91;;;31.22;20.01
36932;BME280;22847;42.654;23.370;2024-03-29T05:23:57;94799.47;;;31.32;20.07
36932;BME280;22847;42.654;23.370;2024-03-29T05:26:22;94786.00;;;31.27;20.30
36932;BME280;22847;42.654;23.370;2024-03-29T05:28:47;94794.63;;;31.19;19.86
36932;BME280;22847;42.654;23.370;2024-03-29T05:31:14;94723.19;;;30.55;20.37
36932;BME280;22847;42.654;23.370;2024-03-29T05:33:40;94785.22;;;30.19;21.08
36932;BME280;22847;42.654;23.370;2024-03-29T05:36:06;94787.28;;;29.49;21.55
36932;BME280;22847;42.654;23.370;2024-03-29T05:38:34;94697.56;;;28.23;22.05
36932;BME280;22847;42.654;23.370;2024-03-29T05:40:59;94729.56;;;27.64;22.70
36932;BME280;22847;42.654;23.370;2024-03-29T05:43:25;94684.09;;;26.92;23.57
36932;BME280;22847;42.654;23.370;2024-03-29T05:45:52;94690.78;;;26.61;23.96
36932;BME280;22847;42.654;23.370;2024-03-29T05:48:18;94723.56;;;26.12;24.73
36932;BME280;22847;42.654;23.370;2024-03-29T05:50:44;94822.94;;;26.09;25.11
36932;BME280;22847;42.654;23.370;2024-03-29T05:53:10;94813.59;;;25.83;25.73
36932;BME280;22847;42.654;23.370;2024-03-29T05:55:36;94801.53;;;25.46;26.39
36932;BME280;22847;42.654;23.370;2024-03-29T05:58:01;94824.84;;;25.27;26.29
36932;BME280;22847;42.654;23.370;2024-03-29T06:00:28;94804.06;;;24.94;26.48
36932;BME280;22847;42.654;23.370;2024-03-29T06:02:54;94726.72;;;24.53;26.51
36932;BME280;22847;42.654;23.370;2024-03-29T06:05:19;94815.22;;;25.03;27.23
36932;BME280;22847;42.654;23.370;2024-03-29T06:07:45;94817.16;;;24.96;27.35
36932;BME280;22847;42.654;23.370;2024-03-29T06:10:10;94783.63;;;24.47;28.35
36932;BME280;22847;42.654;23.370;2024-03-29T06:12:36;94845.47;;;24.97;28.00
36932;BME280;22847;42.654;23.370;2024-03-29T06:15:07;94816.72;;;24.99;27.93
36932;BME280;22847;42.654;23.370;2024-03-29T06:17:51;94805.00;;;24.70;29.08
36932;BME280;22847;42.654;23.370;2024-03-29T06:20:17;94821.28;;;24.80;28.00
36932;BME280;22847;42.654;23.370;2024-03-29T06:22:43;94834.97;;;24.83;28.32
36932;BME280;22847;42.654;23.370;2024-03-29T06:25:09;94685.91;;;24.11;28.33
36932;BME280;22847;42.654;23.370;2024-03-29T06:27:36;94833.22;;;25.19;28.76
36932;BME280;22847;42.654;23.370;2024-03-29T06:30:04;94715.81;;;24.54;28.38
36932;BME280;22847;42.654;23.370;2024-03-29T06:32:32;94753.00;;;24.91;28.31
36932;BME280;22847;42.654;23.370;2024-03-29T06:34:58;94860.03;;;25.36;27.70
36932;BME280;22847;42.654;23.370;2024-03-29T06:37:24;94815.59;;;25.29;28.36
36932;BME280;22847;42.654;23.370;2024-03-29T06:39:51;94745.47;;;24.99;27.74
36932;BME280;22847;42.654;23.370;2024-03-29T06:42:17;94813.94;;;25.05;27.39
36932;BME280;22847;42.654;23.370;2024-03-29T06:44:42;94824.16;;;24.67;28.07
36932;BME280;22847;42.654;23.370;2024-03-29T06:47:08;94840.59;;;24.64;28.53
36932;BME280;22847;42.654;23.370;2024-03-29T06:49:34;94825.66;;;24.63;28.68
36932;BME280;22847;42.654;23.370;2024-03-29T06:52:00;94695.84;;;23.74;28.95
36932;BME280;22847;42.654;23.370;2024-03-29T06:54:27;94850.25;;;24.47;29.31
36932;BME280;22847;42.654;23.370;2024-03-29T06:56:56;94772.88;;;22.58;30.26
36932;BME280;22847;42.654;23.370;2024-03-29T06:59:22;94812.59;;;22.15;31.22
36932;BME280;22847;42.654;23.370;2024-03-29T07:01:48;94701.97;;;21.96;31.57
36932;BME280;22847;42.654;23.370;2024-03-29T07:04:23;94735.72;;;22.51;31.15
36932;BME280;22847;42.654;23.370;2024-03-29T07:06:50;94865.06;;;23.70;30.13
36932;BME280;22847;42.654;23.370;2024-03-29T07:09:19;94871.38;;;23.93;29.35
36932;BME280;22847;42.654;23.370;2024-03-29T07:11:49;94861.25;;;23.84;29.27
36932;BME280;22847;42.654;23.370;2024-03-29T07:14:16;94845.72;;;23.99;29.38
36932;BME280;22847;42.654;23.370;2024-03-29T07:16:42;94860.00;;;23.86;30.06
36932;BME280;22847;42.654;23.370;2024-03-29T07:19:08;94740.41;;;23.42;29.40
36932;BME280;22847;42.654;23.370;2024-03-29T07:21:34;94866.53;;;24.27;31.49
36932;BME280;22847;42.654;23.370;2024-03-29T07:23:59;94830.75;;;24.34;29.48
36932;BME280;22847;42.654;23.370;2024-03-29T07:26:25;94831.22;;;24.31;29.62
36932;BME280;22847;42.654;23.370;2024-03-29T07:28:50;94834.91;;;24.12;28.78
36932;BME280;22847;42.654;23.370;2024-03-29T07:31:16;94748.38;;;23.67;29.74
36932;BME280;22847;42.654;23.370;2024-03-29T07:33:41;94861.84;;;24.40;29.12
36932;BME280;22847;42.654;23.370;2024-03-29T07:36:07;94861.53;;;24.49;28.67
36932;BME280;22847;42.654;23.370;2024-03-29T07:38:34;94758.06;;;24.09;29.32
36932;BME280;22847;42.654;23.370;2024-03-29T07:41:00;94814.44;;;24.42;28.59
36932;BME280;22847;42.654;23.370;2024-03-29T07:43:25;94821.69;;;24.65;28.81
36932;BME280;22847;42.654;23.370;2024-03-29T07:45:51;94727.75;;;24.40;28.73
36932;BME280;22847;42.654;23.370;2024-03-29T07:48:17;94861.78;;;25.42;28.24
36932;BME280;22847;42.654;23.370;2024-03-29T07:50:44;94851.69;;;25.44;27.27
36932;BME280;22847;42.654;23.370;2024-03-29T07:53:10;94842.63;;;25.33;27.49
36932;BME280;22847;42.654;23.370;2024-03-29T07:55:37;94782.13;;;24.92;27.73
36932;BME280;22847;42.654;23.370;2024-03-29T07:58:03;94726.31;;;24.37;28.24
36932;BME280;22847;42.654;23.370;2024-03-29T08:00:32;94856.88;;;25.15;26.89
36932;BME280;22847;42.654;23.370;2024-03-29T08:02:58;94860.13;;;25.17;27.91
36932;BME280;22847;42.654;23.370;2024-03-29T08:05:23;94854.22;;;25.27;29.35
36932;BME280;22847;42.654;23.370;2024-03-29T08:07:49;94871.97;;;25.21;27.40
36932;BME280;22847;42.654;23.370;2024-03-29T08:10:15;94871.13;;;25.09;28.22
36932;BME280;22847;42.654;23.370;2024-03-29T08:12:40;94856.56;;;25.35;28.46
36932;BME280;22847;42.654;23.370;2024-03-29T08:15:06;94849.91;;;25.14;29.54
36932;BME280;22847;42.654;23.370;2024-03-29T08:17:33;94817.78;;;24.79;29.44
36932;BME280;22847;42.654;23.370;2024-03-29T08:19:58;94729.94;;;24.13;28.90
36932;BME280;22847;42.654;23.370;2024-03-29T08:22:24;94818.22;;;24.35;29.04
36932;BME280;22847;42.654;23.370;2024-03-29T08:24:49;94845.38;;;24.73;28.63
36932;BME280;22847;42.654;23.370;2024-03-29T08:27:15;94829.13;;;24.93;28.82
36932;BME280;22847;42.654;23.370;2024-03-29T08:29:42;94798.94;;;24.93;27.15
36932;BME280;22847;42.654;23.370;2024-03-29T08:32:08;94797.34;;;25.26;26.87
36932;BME280;22847;42.654;23.370;2024-03-29T08:34:36;94804.44;;;25.67;27.12
36932;BME280;22847;42.654;23.370;2024-03-29T08:37:01;94813.56;;;26.06;26.19
36932;BME280;22847;42.654;23.370;2024-03-29T08:39:29;94824.56;;;26.22;27.32
36932;BME280;22847;42.654;23.370;2024-03-29T08:41:55;94816.56;;;25.98;27.29
36932;BME280;22847;42.654;23.370;2024-03-29T08:44:21;94787.50;;;25.62;27.01
36932;BME280;22847;42.654;23.370;2024-03-29T08:46:46;94813.59;;;25.83;27.70
36932;BME280;22847;42.654;23.370;2024-03-29T08:49:11;94803.84;;;25.77;27.20
36932;BME280;22847;42.654;23.370;2024-03-29T08:51:37;94821.81;;;26.05;27.42
36932;BME280;22847;42.654;23.370;2024-03-29T08:54:02;94825.84;;;26.07;27.96
36932;BME280;22847;42.654;23.370;2024-03-29T08:56:31;94828.03;;;26.34;26.86
36932;BME280;22847;42.654;23.370;2024-03-29T08:58:57;94834.91;;;26.58;27.50
36932;BME280;22847;42.654;23.370;2024-03-29T09:01:26;94786.81;;;26.06;26.06
36932;BME280;22847;42.654;23.370;2024-03-29T09:03:52;94705.06;;;25.42;26.90
36932;BME280;22847;42.654;23.370;2024-03-29T09:06:18;94797.13;;;25.74;28.22
36932;BME280;22847;42.654;23.370;2024-03-29T09:08:44;94661.13;;;24.75;27.06
36932;BME280;22847;42.654;23.370;2024-03-29T09:11:10;94711.69;;;25.40;25.77
36932;BME280;22847;42.654;23.370;2024-03-29T09:13:36;94781.47;;;26.46;25.91
36932;BME280;22847;42.654;23.370;2024-03-29T09:16:02;94784.28;;;26.85;25.35
36932;BME280;22847;42.654;23.370;2024-03-29T09:18:28;94776.69;;;27.27;25.67
36932;BME280;22847;42.654;23.370;2024-03-29T09:20:57;94779.94;;;27.12;25.58
36932;BME280;22847;42.654;23.370;2024-03-29T09:23:23;94686.88;;;26.36;26.22
36932;BME280;22847;42.654;23.370;2024-03-29T09:25:50;94717.09;;;26.08;26.12
36932;BME280;22847;42.654;23.370;2024-03-29T09:28:16;94773.38;;;27.03;24.88
36932;BME280;22847;42.654;23.370;2024-03-29T09:30:41;94749.97;;;27.32;24.23
36932;BME280;22847;42.654;23.370;2024-03-29T09:33:07;94752.84;;;27.47;24.54
36932;BME280;22847;42.654;23.370;2024-03-29T09:35:35;94776.91;;;27.59;24.13
36932;BME280;22847;42.654;23.370;2024-03-29T09:38:01;94686.50;;;27.11;24.45
36932;BME280;22847;42.654;23.370;2024-03-29T09:40:28;94748.59;;;27.46;24.06
36932;BME280;22847;42.654;23.370;2024-03-29T09:42:56;94713.97;;;27.23;24.14
36932;BME280;22847;42.654;23.370;2024-03-29T09:45:31;94738.56;;;27.20;23.31
36932;BME280;22847;42.654;23.370;2024-03-29T09:48:01;94724.25;;;26.81;24.29
36932;BME280;22847;42.654;23.370;2024-03-29T09:50:29;94540.13;;;25.89;23.90
36932;BME280;22847;42.654;23.370;2024-03-29T09:52:56;94631.75;;;26.85;23.98
36932;BME280;22847;42.654;23.370;2024-03-29T09:55:21;94726.56;;;27.05;25.32
36932;BME280;22847;42.654;23.370;2024-03-29T09:57:47;94709.94;;;26.70;24.22
36932;BME280;22847;42.654;23.370;2024-03-29T10:00:31;94573.22;;;25.31;23.67
36932;BME280;22847;42.654;23.370;2024-03-29T10:02:57;94696.53;;;25.80;23.96
36932;BME280;22847;42.654;23.370;2024-03-29T10:05:24;94713.44;;;25.97;23.89
36932;BME280;22847;42.654;23.370;2024-03-29T10:07:52;94664.19;;;25.93;23.96
36932;BME280;22847;42.654;23.370;2024-03-29T10:10:19;94607.47;;;25.74;23.97
36932;BME280;22847;42.654;23.370;2024-03-29T10:12:44;94626.16;;;26.19;25.06
36932;BME280;22847;42.654;23.370;2024-03-29T10:15:10;94725.59;;;26.95;23.48
36932;BME280;22847;42.654;23.370;2024-03-29T10:17:47;94590.13;;;26.22;23.31
36932;BME280;22847;42.654;23.370;2024-03-29T10:20:16;94704.88;;;27.24;23.00
36932;BME280;22847;42.654;23.370;2024-03-29T10:22:43;94721.94;;;27.56;22.41
36932;BME280;22847;42.654;23.370;2024-03-29T10:25:10;94708.19;;;27.69;22.64
36932;BME280;22847;42.654;23.370;2024-03-29T10:27:36;94604.25;;;27.06;22.95
36932;BME280;22847;42.654;23.370;2024-03-29T10:30:01;94711.50;;;27.76;23.91
36932;BME280;22847;42.654;23.370;2024-03-29T10:32:29;94605.72;;;26.80;24.24
36932;BME280;22847;42.654;23.370;2024-03-29T10:34:54;94591.31;;;26.48;26.30
36932;BME280;22847;42.654;23.370;2024-03-29T10:37:20;94688.53;;;26.70;25.50
36932;BME280;22847;42.654;23.370;2024-03-29T10:39:58;94699.59;;;26.45;25.42
36932;BME280;22847;42.654;23.370;2024-03-29T10:42:24;94700.91;;;26.59;26.21
36932;BME280;22847;42.654;23.370;2024-03-29T10:44:53;94691.75;;;26.72;27.01
36932;BME280;22847;42.654;23.370;2024-03-29T10:47:20;94665.13;;;26.15;27.87
36932;BME280;22847;42.654;23.370;2024-03-29T10:49:50;94625.56;;;26.01;26.67
36932;BME280;22847;42.654;23.370;2024-03-29T10:52:21;94556.22;;;25.77;25.28
36932;BME280;22847;42.654;23.370;2024-03-29T10:54:47;94420.63;;;25.06;24.88
36932;BME280;22847;42.654;23.370;2024-03-29T10:57:24;94678.06;;;26.52;25.22
36932;BME280;22847;42.654;23.370;2024-03-29T11:02:33;94682.31;;;25.91;25.29
36932;BME280;22847;42.654;23.370;2024-03-29T11:05:01;94687.41;;;26.21;25.19
36932;BME280;22847;42.654;23.370;2024-03-29T11:07:34;94568.53;;;25.79;25.40
36932;BME280;22847;42.654;23.370;2024-03-29T11:10:01;94687.38;;;26.83;26.57
36932;BME280;22847;42.654;23.370;2024-03-29T11:12:30;94668.50;;;26.73;25.78
36932;BME280;22847;42.654;23.370;2024-03-29T11:15:14;94651.88;;;26.54;24.33
36932;BME280;22847;42.654;23.370;2024-03-29T11:17:42;94619.72;;;26.32;24.26
36932;BME280;22847;42.654;23.370;2024-03-29T11:20:08;94670.84;;;26.52;24.71
36932;BME280;22847;42.654;23.370;2024-03-29T11:22:35;94675.88;;;26.49;25.85
36932;BME280;22847;42.654;23.370;2024-03-29T11:25:01;94656.19;;;26.38;27.14
36932;BME280;22847;42.654;23.370;2024-03-29T11:27:28;94629.88;;;26.18;26.01
36932;BME280;22847;42.654;23.370;2024-03-29T11:29:53;94684.69;;;26.33;25.49
36932;BME280;22847;42.654;23.370;2024-03-29T11:32:35;94642.09;;;26.14;25.78
36932;BME280;22847;42.654;23.370;2024-03-29T11:35:02;94672.72;;;26.52;26.12
36932;BME280;22847;42.654;23.370;2024-03-29T11:37:31;94647.47;;;25.86;26.50
36932;BME280;22847;42.654;23.370;2024-03-29T11:40:00;94659.63;;;26.22;26.35
36932;BME280;22847;42.654;23.370;2024-03-29T11:42:52;94662.16;;;26.62;25.99
36932;BME280;22847;42.654;23.370;2024-03-29T11:45:18;94667.84;;;26.49;25.64
36932;BME280;22847;42.654;23.370;2024-03-29T11:47:45;94564.91;;;25.85;25.66
36932;BME280;22847;42.654;23.370;2024-03-29T11:50:11;94654.38;;;26.44;27.65
36932;BME280;22847;42.654;23.370;2024-03-29T11:52:38;94633.47;;;26.24;26.01
36932;BME280;22847;42.654;23.370;2024-03-29T11:55:05;94655.84;;;26.35;26.60
36932;BME280;22847;42.654;23.370;2024-03-29T11:57:30;94530.22;;;25.56;27.30
36932;BME280;22847;42.654;23.370;2024-03-29T11:59:56;94622.47;;;26.37;26.71
36932;BME280;22847;42.654;23.370;2024-03-29T12:02:23;94647.25;;;26.66;26.67
36932;BME280;22847;42.654;23.370;2024-03-29T12:04:49;94531.47;;;26.15;26.91
36932;BME280;22847;42.654;23.370;2024-03-29T12:07:14;94623.41;;;26.48;27.13
36932;BME280;22847;42.654;23.370;2024-03-29T12:09:40;94642.06;;;26.76;27.73
36932;BME280;22847;42.654;23.370;2024-03-29T12:12:06;94615.00;;;26.39;26.62
36932;BME280;22847;42.654;23.370;2024-03-29T12:14:35;94607.66;;;26.30;28.73
36932;BME280;22847;42.654;23.370;2024-03-29T12:17:09;94641.25;;;26.59;27.59
36932;BME280;22847;42.654;23.370;2024-03-29T12:19:34;94638.84;;;26.41;26.80
36932;BME280;22847;42.654;23.370;2024-03-29T12:22:03;94626.81;;;26.27;27.08
36932;BME280;22847;42.654;23.370;2024-03-29T12:24:29;94530.63;;;25.65;27.26
36932;BME280;22847;42.654;23.370;2024-03-29T12:26:55;94659.25;;;26.47;27.55
36932;BME280;22847;42.654;23.370;2024-03-29T12:29:20;94638.41;;;26.49;27.10
36932;BME280;22847;42.654;23.370;2024-03-29T12:31:59;94634.63;;;26.28;27.61
36932;BME280;22847;42.654;23.370;2024-03-29T12:34:25;94612.13;;;26.12;27.67
36932;BME280;22847;42.654;23.370;2024-03-29T12:36:50;94627.66;;;26.27;27.75
36932;BME280;22847;42.654;23.370;2024-03-29T12:39:17;94646.84;;;26.41;27.70
36932;BME280;22847;42.654;23.370;2024-03-29T12:41:42;94631.78;;;26.35;26.97
36932;BME280;22847;42.654;23.370;2024-03-29T12:44:10;94593.63;;;25.94;27.51
36932;BME280;22847;42.654;23.370;2024-03-29T12:46:36;94603.97;;;26.19;28.37
36932;BME280;22847;42.654;23.370;2024-03-29T12:49:03;94626.34;;;26.46;27.91
36932;BME280;22847;42.654;23.370;2024-03-29T12:51:28;94629.34;;;26.33;27.30